createdAt,value
2017-11-27T00:00:11.945Z,17.41
2017-11-27T00:01:14.416Z,17.41
2017-11-27T00:02:16.885Z,17.40
2017-11-27T00:03:19.385Z,17.40
2017-11-27T00:04:21.882Z,17.40
2017-11-27T00:05:24.347Z,17.40
2017-11-27T00:06:26.839Z,17.39
2017-11-27T00:07:29.388Z,17.39
2017-11-27T00:08:31.869Z,17.39
2017-11-27T00:09:34.360Z,17.39
2017-11-27T00:10:36.847Z,17.39
2017-11-27T00:11:39.333Z,17.39
2017-11-27T00:12:41.800Z,17.38
2017-11-27T00:13:44.285Z,17.38
2017-11-27T00:14:46.767Z,17.38
2017-11-27T00:15:49.240Z,17.38
2017-11-27T00:16:51.736Z,17.38
2017-11-27T00:17:54.224Z,17.38
2017-11-27T00:18:56.697Z,17.39
2017-11-27T00:19:59.187Z,17.39
2017-11-27T00:21:01.667Z,17.39
2017-11-27T00:22:04.149Z,17.39
2017-11-27T00:23:06.639Z,17.39
2017-11-27T00:24:09.139Z,17.39
2017-11-27T00:25:11.627Z,17.39
2017-11-27T00:26:14.099Z,17.39
2017-11-27T00:27:16.582Z,17.37
2017-11-27T00:28:19.060Z,17.38
2017-11-27T00:29:21.551Z,17.39
2017-11-27T00:30:24.020Z,17.38
2017-11-27T00:31:26.498Z,17.38
2017-11-27T00:32:28.984Z,17.38
2017-11-27T00:33:31.456Z,17.38
2017-11-27T00:34:33.927Z,17.38
2017-11-27T00:35:36.412Z,17.38
2017-11-27T00:36:38.894Z,17.38
2017-11-27T00:37:41.368Z,17.37
2017-11-27T00:38:43.835Z,17.37
2017-11-27T00:39:46.344Z,17.37
2017-11-27T00:40:48.826Z,17.37
2017-11-27T00:41:51.300Z,17.37
2017-11-27T00:42:53.782Z,17.37
2017-11-27T00:43:56.261Z,17.38
2017-11-27T00:44:58.759Z,17.38
2017-11-27T00:46:01.231Z,17.40
2017-11-27T00:47:03.708Z,17.41
2017-11-27T00:48:06.185Z,17.41
2017-11-27T00:49:08.658Z,17.41
2017-11-27T00:50:11.157Z,17.41
2017-11-27T00:51:13.639Z,17.41
2017-11-27T00:52:16.108Z,17.40
2017-11-27T00:53:18.592Z,17.40
2017-11-27T00:54:21.084Z,17.40
2017-11-27T00:55:23.577Z,17.39
2017-11-27T00:56:28.998Z,17.39
2017-11-27T00:57:31.490Z,17.38
2017-11-27T00:58:33.960Z,17.38
2017-11-27T00:59:36.436Z,17.38
2017-11-27T01:00:38.929Z,17.37
2017-11-27T01:01:41.416Z,17.36
2017-11-27T01:02:43.905Z,17.36
2017-11-27T01:03:46.389Z,17.36
2017-11-27T01:04:48.853Z,17.35
2017-11-27T01:05:51.349Z,17.35
2017-11-27T01:06:53.817Z,17.35
2017-11-27T01:07:56.287Z,17.34
2017-11-27T01:08:58.774Z,17.34
2017-11-27T01:10:01.244Z,17.33
2017-11-27T01:11:03.727Z,17.33
2017-11-27T01:12:06.228Z,17.33
2017-11-27T01:13:08.709Z,17.32
2017-11-27T01:14:11.194Z,17.33
2017-11-27T01:15:13.667Z,17.33
2017-11-27T01:16:16.157Z,17.33
2017-11-27T01:17:18.642Z,17.33
2017-11-27T01:18:21.106Z,17.33
2017-11-27T01:19:23.594Z,17.33
2017-11-27T01:20:26.079Z,17.35
2017-11-27T01:21:28.555Z,17.35
2017-11-27T01:22:31.034Z,17.35
2017-11-27T01:23:33.517Z,17.35
2017-11-27T01:24:35.985Z,17.35
2017-11-27T01:25:38.465Z,17.34
2017-11-27T01:26:40.958Z,17.33
2017-11-27T01:27:43.438Z,17.33
2017-11-27T01:28:45.908Z,17.33
2017-11-27T01:29:48.403Z,17.32
2017-11-27T01:30:50.890Z,17.31
2017-11-27T01:31:53.361Z,17.30
2017-11-27T01:32:55.881Z,17.30
2017-11-27T01:33:58.356Z,17.31
2017-11-27T01:35:00.826Z,17.30
2017-11-27T01:36:03.296Z,17.29
2017-11-27T01:37:05.782Z,17.29
2017-11-27T01:38:08.269Z,17.28
2017-11-27T01:39:10.743Z,17.28
2017-11-27T01:40:13.226Z,17.27
2017-11-27T01:41:15.705Z,17.26
2017-11-27T01:42:18.191Z,17.27
2017-11-27T01:43:20.667Z,17.27
2017-11-27T01:44:23.140Z,17.26
2017-11-27T01:45:25.631Z,17.26
2017-11-27T01:46:28.121Z,17.25
2017-11-27T01:47:30.596Z,17.26
2017-11-27T01:48:33.076Z,17.26
2017-11-27T01:49:35.547Z,17.25
2017-11-27T01:50:38.012Z,17.25
2017-11-27T01:51:40.499Z,17.25
2017-11-27T01:52:42.968Z,17.24
2017-11-27T01:53:45.444Z,17.24
2017-11-27T01:54:47.911Z,17.23
2017-11-27T01:55:50.390Z,17.22
2017-11-27T01:56:52.865Z,17.22
2017-11-27T01:57:55.353Z,17.23
2017-11-27T01:58:57.820Z,17.21
2017-11-27T02:00:00.296Z,17.22
2017-11-27T02:01:02.782Z,17.21
2017-11-27T02:02:05.257Z,17.20
2017-11-27T02:03:07.730Z,17.20
2017-11-27T02:04:10.205Z,17.20
2017-11-27T02:05:12.680Z,17.19
2017-11-27T02:06:15.161Z,17.19
2017-11-27T02:07:17.632Z,17.19
2017-11-27T02:08:20.091Z,17.19
2017-11-27T02:09:22.565Z,17.19
2017-11-27T02:10:25.028Z,17.18
2017-11-27T02:11:27.515Z,17.18
2017-11-27T02:12:29.979Z,17.17
2017-11-27T02:13:32.468Z,17.17
2017-11-27T02:14:34.930Z,17.17
2017-11-27T02:15:37.411Z,17.17
2017-11-27T02:16:39.892Z,17.17
2017-11-27T02:17:42.392Z,17.17
2017-11-27T02:18:44.871Z,17.17
2017-11-27T02:19:47.358Z,17.17
2017-11-27T02:20:49.837Z,17.17
2017-11-27T02:21:52.301Z,17.17
2017-11-27T02:22:54.793Z,17.17
2017-11-27T02:23:57.271Z,17.17
2017-11-27T02:24:59.735Z,17.17
2017-11-27T02:26:02.218Z,17.17
2017-11-27T02:27:04.677Z,17.16
2017-11-27T02:28:07.136Z,17.17
2017-11-27T02:29:09.587Z,17.17
2017-11-27T02:30:12.055Z,17.16
2017-11-27T02:31:14.525Z,17.15
2017-11-27T02:32:16.995Z,17.16
2017-11-27T02:33:19.474Z,17.16
2017-11-27T02:34:21.974Z,17.14
2017-11-27T02:35:24.458Z,17.15
2017-11-27T02:36:26.935Z,17.14
2017-11-27T02:37:29.424Z,17.14
2017-11-27T02:38:31.907Z,17.14
2017-11-27T02:39:34.385Z,17.13
2017-11-27T02:40:36.857Z,17.14
2017-11-27T02:41:39.328Z,17.15
2017-11-27T02:42:41.822Z,17.14
2017-11-27T02:43:44.314Z,17.16
2017-11-27T02:44:46.784Z,17.15
2017-11-27T02:45:49.244Z,17.16
2017-11-27T02:46:51.721Z,17.16
2017-11-27T02:47:54.210Z,17.16
2017-11-27T02:48:56.703Z,17.16
2017-11-27T02:49:59.194Z,17.16
2017-11-27T02:51:01.671Z,17.15
2017-11-27T02:52:04.159Z,17.16
2017-11-27T02:53:06.652Z,17.15
2017-11-27T02:54:09.114Z,17.15
2017-11-27T02:55:11.589Z,17.14
2017-11-27T02:56:14.061Z,17.14
2017-11-27T02:57:16.551Z,17.14
2017-11-27T02:58:19.024Z,17.14
2017-11-27T02:59:21.488Z,17.13
2017-11-27T03:00:23.974Z,17.13
2017-11-27T03:01:26.440Z,17.14
2017-11-27T03:02:28.926Z,17.13
2017-11-27T03:03:31.402Z,17.13
2017-11-27T03:04:33.879Z,17.12
2017-11-27T03:05:36.363Z,17.13
2017-11-27T03:06:38.833Z,17.13
2017-11-27T03:07:41.296Z,17.13
2017-11-27T03:08:43.786Z,17.13
2017-11-27T03:09:46.266Z,17.13
2017-11-27T03:10:48.753Z,17.14
2017-11-27T03:11:51.224Z,17.14
2017-11-27T03:12:53.726Z,17.13
2017-11-27T03:13:56.213Z,17.14
2017-11-27T03:14:58.699Z,17.13
2017-11-27T03:16:01.181Z,17.14
2017-11-27T03:17:03.661Z,17.13
2017-11-27T03:18:06.128Z,17.13
2017-11-27T03:19:08.589Z,17.12
2017-11-27T03:20:11.137Z,17.12
2017-11-27T03:21:13.596Z,17.12
2017-11-27T03:22:16.069Z,17.11
2017-11-27T03:23:18.552Z,17.12
2017-11-27T03:24:21.019Z,17.11
2017-11-27T03:25:23.493Z,17.10
2017-11-27T03:26:25.992Z,17.11
2017-11-27T03:27:28.491Z,17.10
2017-11-27T03:28:30.960Z,17.10
2017-11-27T03:29:33.424Z,17.10
2017-11-27T03:30:35.894Z,17.10
2017-11-27T03:31:38.391Z,17.10
2017-11-27T03:32:40.857Z,17.09
2017-11-27T03:33:43.323Z,17.09
2017-11-27T03:34:45.806Z,17.09
2017-11-27T03:35:48.286Z,17.09
2017-11-27T03:36:50.757Z,17.08
2017-11-27T03:37:53.230Z,17.08
2017-11-27T03:38:55.728Z,17.08
2017-11-27T03:39:58.191Z,17.08
2017-11-27T03:41:00.670Z,17.08
2017-11-27T03:42:03.140Z,17.08
2017-11-27T03:43:05.622Z,17.08
2017-11-27T03:44:08.111Z,17.07
2017-11-27T03:45:10.598Z,17.08
2017-11-27T03:46:13.076Z,17.08
2017-11-27T03:47:15.549Z,17.07
2017-11-27T03:48:18.055Z,17.08
2017-11-27T03:49:20.538Z,17.09
2017-11-27T03:50:23.030Z,17.10
2017-11-27T03:51:25.499Z,17.09
2017-11-27T03:52:27.989Z,17.09
2017-11-27T03:53:30.473Z,17.11
2017-11-27T03:54:32.962Z,17.10
2017-11-27T03:55:35.432Z,17.10
2017-11-27T03:56:37.924Z,17.09
2017-11-27T03:57:40.863Z,17.08
2017-11-27T03:58:43.357Z,17.08
2017-11-27T03:59:45.839Z,17.08
2017-11-27T04:00:48.333Z,17.09
2017-11-27T04:01:50.822Z,17.09
2017-11-27T04:02:53.302Z,17.08
2017-11-27T04:03:55.790Z,17.07
2017-11-27T04:04:58.258Z,17.06
2017-11-27T04:06:00.737Z,17.06
2017-11-27T04:07:03.238Z,17.05
2017-11-27T04:08:05.712Z,17.05
2017-11-27T04:09:08.214Z,17.04
2017-11-27T04:10:10.699Z,17.03
2017-11-27T04:11:13.175Z,17.02
2017-11-27T04:12:15.667Z,17.02
2017-11-27T04:13:18.200Z,17.01
2017-11-27T04:14:20.681Z,17.00
2017-11-27T04:15:23.209Z,16.99
2017-11-27T04:16:25.691Z,16.99
2017-11-27T04:17:28.179Z,16.98
2017-11-27T04:18:30.663Z,16.97
2017-11-27T04:19:33.148Z,16.97
2017-11-27T04:20:35.624Z,16.96
2017-11-27T04:21:38.112Z,16.96
2017-11-27T04:22:40.588Z,16.96
2017-11-27T04:23:43.068Z,16.96
2017-11-27T04:24:45.570Z,16.96
2017-11-27T04:25:48.054Z,16.96
2017-11-27T04:26:50.523Z,16.95
2017-11-27T04:27:53.013Z,16.96
2017-11-27T04:28:55.493Z,16.95
2017-11-27T04:29:57.960Z,16.95
2017-11-27T04:31:00.428Z,16.95
2017-11-27T04:32:02.904Z,16.95
2017-11-27T04:33:05.398Z,16.95
2017-11-27T04:34:07.860Z,16.95
2017-11-27T04:35:10.342Z,16.96
2017-11-27T04:36:12.810Z,16.94
2017-11-27T04:37:15.295Z,16.94
2017-11-27T04:38:17.778Z,16.95
2017-11-27T04:39:20.247Z,16.93
2017-11-27T04:40:22.728Z,16.94
2017-11-27T04:41:25.214Z,16.94
2017-11-27T04:42:27.700Z,16.93
2017-11-27T04:43:30.206Z,16.94
2017-11-27T04:44:32.711Z,16.94
2017-11-27T04:45:35.188Z,16.94
2017-11-27T04:46:37.672Z,16.93
2017-11-27T04:47:40.153Z,16.95
2017-11-27T04:48:42.634Z,16.94
2017-11-27T04:49:45.118Z,16.94
2017-11-27T04:50:47.634Z,16.93
2017-11-27T04:51:50.118Z,16.94
2017-11-27T04:52:52.585Z,16.94
2017-11-27T04:53:55.060Z,16.93
2017-11-27T04:54:57.522Z,16.93
2017-11-27T04:56:00.001Z,16.92
2017-11-27T04:57:02.497Z,16.92
2017-11-27T04:58:04.968Z,16.91
2017-11-27T04:59:07.444Z,16.90
2017-11-27T05:00:09.911Z,16.90
2017-11-27T05:01:12.402Z,16.89
2017-11-27T05:02:14.864Z,16.89
2017-11-27T05:03:17.361Z,16.90
2017-11-27T05:04:19.846Z,16.89
2017-11-27T05:05:22.327Z,16.89
2017-11-27T05:06:24.809Z,16.89
2017-11-27T05:07:27.293Z,16.89
2017-11-27T05:08:29.774Z,16.88
2017-11-27T05:09:32.300Z,16.88
2017-11-27T05:10:34.769Z,16.88
2017-11-27T05:11:37.237Z,16.89
2017-11-27T05:12:39.704Z,16.89
2017-11-27T05:13:42.171Z,16.89
2017-11-27T05:14:44.641Z,16.88
2017-11-27T05:15:47.121Z,16.88
2017-11-27T05:16:49.629Z,16.90
2017-11-27T05:17:52.095Z,16.89
2017-11-27T05:18:54.560Z,16.90
2017-11-27T05:19:57.063Z,16.90
2017-11-27T05:20:59.549Z,16.90
2017-11-27T05:22:02.036Z,16.90
2017-11-27T05:23:04.500Z,16.90
2017-11-27T05:24:06.990Z,16.91
2017-11-27T05:25:09.475Z,16.90
2017-11-27T05:26:11.936Z,16.90
2017-11-27T05:27:14.405Z,16.89
2017-11-27T05:28:16.876Z,16.90
2017-11-27T05:29:19.340Z,16.90
2017-11-27T05:30:21.838Z,16.89
2017-11-27T05:31:24.329Z,16.90
2017-11-27T05:32:26.810Z,16.89
2017-11-27T05:33:29.293Z,16.89
2017-11-27T05:34:31.755Z,16.89
2017-11-27T05:35:34.230Z,16.88
2017-11-27T05:36:36.697Z,16.88
2017-11-27T05:37:39.186Z,16.88
2017-11-27T05:38:41.651Z,16.87
2017-11-27T05:39:44.130Z,16.88
2017-11-27T05:40:46.612Z,16.87
2017-11-27T05:41:49.079Z,16.86
2017-11-27T05:42:51.562Z,16.86
2017-11-27T05:43:54.048Z,16.85
2017-11-27T05:44:56.511Z,16.85
2017-11-27T05:45:58.990Z,16.84
2017-11-27T05:47:01.482Z,16.84
2017-11-27T05:48:03.969Z,16.83
2017-11-27T05:49:06.448Z,16.83
2017-11-27T05:50:08.920Z,16.83
2017-11-27T05:51:11.406Z,16.82
2017-11-27T05:52:13.884Z,16.83
2017-11-27T05:53:16.364Z,16.84
2017-11-27T05:54:18.831Z,16.83
2017-11-27T05:55:21.299Z,16.83
2017-11-27T05:56:23.768Z,16.83
2017-11-27T05:57:26.240Z,16.85
2017-11-27T05:58:28.730Z,16.86
2017-11-27T05:59:31.236Z,16.87
2017-11-27T06:00:33.708Z,16.87
2017-11-27T06:01:36.197Z,16.87
2017-11-27T06:02:38.691Z,16.87
2017-11-27T06:03:41.170Z,16.87
2017-11-27T06:04:43.650Z,16.87
2017-11-27T06:05:46.115Z,16.89
2017-11-27T06:06:48.606Z,16.91
2017-11-27T06:07:51.094Z,16.96
2017-11-27T06:08:53.594Z,17.01
2017-11-27T06:09:56.074Z,17.05
2017-11-27T06:10:58.548Z,17.08
2017-11-27T06:12:01.293Z,17.11
2017-11-27T06:13:03.826Z,17.14
2017-11-27T06:14:06.309Z,17.19
2017-11-27T06:15:08.848Z,17.22
2017-11-27T06:16:11.325Z,17.25
2017-11-27T06:17:13.806Z,17.28
2017-11-27T06:18:16.281Z,17.30
2017-11-27T06:19:18.782Z,17.32
2017-11-27T06:20:21.256Z,17.34
2017-11-27T06:21:23.741Z,17.36
2017-11-27T06:22:26.208Z,17.36
2017-11-27T06:23:28.725Z,17.37
2017-11-27T06:24:31.196Z,17.38
2017-11-27T06:25:33.665Z,17.38
2017-11-27T06:26:36.131Z,17.38
2017-11-27T06:27:38.673Z,17.40
2017-11-27T06:28:41.233Z,17.40
2017-11-27T06:29:43.735Z,17.40
2017-11-27T06:30:46.210Z,17.40
2017-11-27T06:31:48.695Z,17.41
2017-11-27T06:32:51.160Z,17.41
2017-11-27T06:33:53.725Z,17.40
2017-11-27T06:34:56.197Z,17.39
2017-11-27T06:35:58.678Z,17.37
2017-11-27T06:37:01.152Z,17.35
2017-11-27T06:38:03.642Z,17.33
2017-11-27T06:39:06.133Z,17.31
2017-11-27T06:40:08.672Z,17.29
2017-11-27T06:41:11.149Z,17.27
2017-11-27T06:42:13.616Z,17.25
2017-11-27T06:43:16.154Z,17.25
2017-11-27T06:44:18.629Z,17.24
2017-11-27T06:45:21.093Z,17.22
2017-11-27T06:46:23.587Z,17.21
2017-11-27T06:47:26.063Z,17.20
2017-11-27T06:48:28.545Z,17.19
2017-11-27T06:49:31.023Z,17.17
2017-11-27T06:50:33.492Z,17.14
2017-11-27T06:51:35.967Z,17.09
2017-11-27T06:52:38.462Z,17.04
2017-11-27T06:53:40.935Z,16.94
2017-11-27T06:54:43.424Z,16.88
2017-11-27T06:55:45.892Z,16.81
2017-11-27T06:56:48.360Z,16.76
2017-11-27T06:57:50.845Z,16.68
2017-11-27T06:58:53.341Z,16.57
2017-11-27T06:59:55.819Z,16.44
2017-11-27T07:00:58.306Z,16.37
2017-11-27T07:02:00.812Z,16.35
2017-11-27T07:03:03.294Z,16.32
2017-11-27T07:04:05.773Z,16.29
2017-11-27T07:05:08.268Z,16.27
2017-11-27T07:06:10.740Z,16.26
2017-11-27T07:07:13.213Z,16.28
2017-11-27T07:08:15.689Z,16.31
2017-11-27T07:09:18.157Z,16.30
2017-11-27T07:10:20.650Z,16.32
2017-11-27T07:11:23.138Z,16.37
2017-11-27T07:12:25.622Z,16.41
2017-11-27T07:13:28.108Z,16.43
2017-11-27T07:14:30.583Z,16.47
2017-11-27T07:15:33.060Z,16.51
2017-11-27T07:16:35.532Z,16.54
2017-11-27T07:17:38.000Z,16.57
2017-11-27T07:18:40.485Z,16.60
2017-11-27T07:19:42.953Z,16.63
2017-11-27T07:20:45.441Z,16.67
2017-11-27T07:21:47.984Z,16.70
2017-11-27T07:22:50.467Z,16.73
2017-11-27T07:23:52.944Z,16.75
2017-11-27T07:24:55.416Z,16.78
2017-11-27T07:25:57.890Z,16.80
2017-11-27T07:27:00.359Z,16.82
2017-11-27T07:28:02.836Z,16.85
2017-11-27T07:29:05.353Z,16.87
2017-11-27T07:30:07.839Z,16.88
2017-11-27T07:31:10.332Z,16.90
2017-11-27T07:32:12.813Z,16.91
2017-11-27T07:33:15.301Z,16.92
2017-11-27T07:34:17.794Z,16.93
2017-11-27T07:35:20.344Z,16.95
2017-11-27T07:36:22.830Z,16.95
2017-11-27T07:37:30.888Z,16.96
2017-11-27T07:40:15.752Z,16.98
2017-11-27T07:41:18.223Z,16.97
2017-11-27T07:42:20.687Z,16.98
2017-11-27T07:43:23.185Z,16.99
2017-11-27T07:44:25.653Z,16.99
2017-11-27T07:45:28.150Z,17.00
2017-11-27T07:46:30.622Z,17.00
2017-11-27T07:47:33.096Z,17.00
2017-11-27T07:48:35.586Z,17.01
2017-11-27T07:49:38.055Z,17.01
2017-11-27T07:50:40.598Z,17.01
2017-11-27T07:51:43.076Z,17.01
2017-11-27T07:52:45.576Z,17.02
2017-11-27T07:53:48.059Z,17.03
2017-11-27T07:54:50.548Z,17.02
2017-11-27T07:55:53.030Z,17.03
2017-11-27T07:56:55.488Z,17.03
2017-11-27T07:57:57.978Z,17.03
2017-11-27T07:59:00.439Z,17.03
2017-11-27T08:00:02.896Z,17.03
2017-11-27T08:01:05.378Z,17.04
2017-11-27T08:02:07.862Z,17.05
2017-11-27T08:03:10.320Z,17.04
2017-11-27T08:04:12.799Z,17.04
2017-11-27T08:05:15.270Z,17.05
2017-11-27T08:06:17.740Z,17.05
2017-11-27T08:07:20.215Z,17.05
2017-11-27T08:08:22.684Z,17.05
2017-11-27T08:09:25.148Z,17.05
2017-11-27T08:10:27.623Z,17.05
2017-11-27T08:11:30.125Z,17.06
2017-11-27T08:12:32.599Z,17.06
2017-11-27T08:13:35.089Z,17.06
2017-11-27T08:14:37.573Z,17.06
2017-11-27T08:15:40.047Z,17.06
2017-11-27T08:16:42.535Z,17.06
2017-11-27T08:17:45.110Z,17.06
2017-11-27T08:18:47.672Z,17.07
2017-11-27T08:19:50.166Z,17.07
2017-11-27T08:20:52.657Z,17.07
2017-11-27T08:21:55.188Z,17.06
2017-11-27T08:22:57.655Z,17.06
2017-11-27T08:24:00.162Z,17.07
2017-11-27T08:25:02.629Z,17.07
2017-11-27T08:26:05.095Z,17.07
2017-11-27T08:27:07.568Z,17.07
2017-11-27T08:28:10.056Z,17.07
2017-11-27T08:29:12.536Z,17.07
2017-11-27T08:30:15.014Z,17.06
2017-11-27T08:31:17.483Z,17.06
2017-11-27T08:32:19.993Z,17.06
2017-11-27T08:33:22.467Z,17.06
2017-11-27T08:34:24.954Z,17.06
2017-11-27T08:35:27.421Z,17.07
2017-11-27T08:36:29.889Z,17.07
2017-11-27T08:37:32.369Z,17.07
2017-11-27T08:38:34.863Z,17.07
2017-11-27T08:39:37.344Z,17.06
2017-11-27T08:40:39.820Z,17.07
2017-11-27T08:41:42.306Z,17.06
2017-11-27T08:42:44.771Z,17.06
2017-11-27T08:43:47.253Z,17.06
2017-11-27T08:44:49.746Z,17.06
2017-11-27T08:45:52.230Z,17.07
2017-11-27T08:46:54.714Z,17.07
2017-11-27T08:47:57.189Z,17.07
2017-11-27T08:48:59.657Z,17.07
2017-11-27T08:50:02.143Z,17.07
2017-11-27T08:51:04.621Z,17.07
2017-11-27T08:52:07.087Z,17.06
2017-11-27T08:53:09.560Z,17.06
2017-11-27T08:54:12.047Z,17.06
2017-11-27T08:55:14.510Z,17.06
2017-11-27T08:56:16.967Z,17.05
2017-11-27T08:57:19.459Z,17.05
2017-11-27T08:58:21.936Z,17.06
2017-11-27T08:59:24.408Z,17.06
2017-11-27T09:00:26.881Z,17.05
2017-11-27T09:01:29.418Z,17.05
2017-11-27T09:02:31.909Z,17.06
2017-11-27T09:03:34.401Z,17.05
2017-11-27T09:04:36.890Z,17.05
2017-11-27T09:05:39.378Z,17.05
2017-11-27T09:06:41.861Z,17.05
2017-11-27T09:07:44.348Z,17.05
2017-11-27T09:08:46.874Z,17.06
2017-11-27T09:09:49.358Z,17.06
2017-11-27T09:10:51.820Z,17.06
2017-11-27T09:11:54.287Z,17.05
2017-11-27T09:12:56.771Z,17.06
2017-11-27T09:13:59.273Z,17.05
2017-11-27T09:15:01.743Z,17.05
2017-11-27T09:16:04.231Z,17.06
2017-11-27T09:17:06.714Z,17.06
2017-11-27T09:18:09.208Z,17.06
2017-11-27T09:19:11.704Z,17.06
2017-11-27T09:20:14.235Z,17.06
2017-11-27T09:21:16.704Z,17.06
2017-11-27T09:22:19.190Z,17.06
2017-11-27T09:23:21.659Z,17.06
2017-11-27T09:24:24.133Z,17.06
2017-11-27T09:25:26.595Z,17.06
2017-11-27T09:26:29.066Z,17.06
2017-11-27T09:27:31.550Z,17.06
2017-11-27T09:28:34.028Z,17.06
2017-11-27T09:29:36.523Z,17.06
2017-11-27T09:30:39.247Z,17.05
2017-11-27T09:31:41.765Z,17.06
2017-11-27T09:32:44.249Z,17.05
2017-11-27T09:33:46.737Z,17.05
2017-11-27T09:34:49.218Z,17.05
2017-11-27T09:35:51.684Z,17.05
2017-11-27T09:36:54.166Z,17.05
2017-11-27T09:37:56.707Z,17.05
2017-11-27T09:38:59.206Z,17.05
2017-11-27T09:40:01.676Z,17.05
2017-11-27T09:41:04.140Z,17.04
2017-11-27T09:42:06.624Z,17.04
2017-11-27T09:43:09.128Z,17.05
2017-11-27T09:44:11.613Z,17.05
2017-11-27T09:45:14.098Z,17.05
2017-11-27T09:46:16.568Z,17.05
2017-11-27T09:47:19.066Z,17.05
2017-11-27T09:48:21.543Z,17.05
2017-11-27T09:49:24.016Z,17.05
2017-11-27T09:50:26.495Z,17.04
2017-11-27T09:51:28.970Z,17.05
2017-11-27T09:52:31.436Z,17.04
2017-11-27T09:53:33.906Z,17.04
2017-11-27T09:54:36.389Z,17.04
2017-11-27T09:55:38.877Z,17.04
2017-11-27T09:56:41.344Z,17.04
2017-11-27T09:57:43.827Z,17.04
2017-11-27T09:58:46.318Z,17.04
2017-11-27T09:59:48.799Z,17.04
2017-11-27T10:00:51.323Z,17.04
2017-11-27T10:01:53.784Z,17.03
2017-11-27T10:02:56.277Z,17.03
2017-11-27T10:03:58.763Z,17.04
2017-11-27T10:05:01.244Z,17.03
2017-11-27T10:06:03.721Z,17.03
2017-11-27T10:07:06.189Z,17.03
2017-11-27T10:08:08.843Z,17.04
2017-11-27T10:09:11.326Z,17.04
2017-11-27T10:10:13.826Z,17.03
2017-11-27T10:11:16.313Z,17.03
2017-11-27T10:12:18.797Z,17.04
2017-11-27T10:13:21.286Z,17.04
2017-11-27T10:14:23.757Z,17.02
2017-11-27T10:15:26.241Z,17.03
2017-11-27T10:16:29.120Z,17.03
2017-11-27T10:17:31.634Z,17.02
2017-11-27T10:18:34.097Z,17.03
2017-11-27T10:19:36.572Z,17.03
2017-11-27T10:20:39.035Z,17.03
2017-11-27T10:21:41.507Z,17.03
2017-11-27T10:22:43.984Z,17.02
2017-11-27T10:23:46.450Z,17.02
2017-11-27T10:24:48.928Z,17.02
2017-11-27T10:25:51.421Z,17.02
2017-11-27T10:26:53.916Z,17.02
2017-11-27T10:27:56.562Z,17.02
2017-11-27T10:28:59.051Z,17.02
2017-11-27T10:30:01.543Z,17.02
2017-11-27T10:31:04.025Z,17.02
2017-11-27T10:32:06.488Z,17.01
2017-11-27T10:33:08.978Z,17.02
2017-11-27T10:34:11.471Z,17.01
2017-11-27T10:35:13.958Z,17.01
2017-11-27T10:36:16.445Z,17.01
2017-11-27T10:37:19.034Z,17.01
2017-11-27T10:38:21.535Z,17.01
2017-11-27T10:39:24.008Z,17.01
2017-11-27T10:40:26.463Z,17.01
2017-11-27T10:41:28.932Z,17.02
2017-11-27T10:42:31.395Z,17.01
2017-11-27T10:43:33.853Z,17.01
2017-11-27T10:44:36.324Z,17.01
2017-11-27T10:45:38.811Z,17.01
2017-11-27T10:46:41.305Z,17.01
2017-11-27T10:47:43.793Z,17.01
2017-11-27T10:48:46.259Z,17.01
2017-11-27T10:49:48.757Z,17.00
2017-11-27T10:50:51.240Z,17.00
2017-11-27T10:51:53.711Z,17.00
2017-11-27T10:52:56.204Z,17.00
2017-11-27T10:53:58.682Z,16.99
2017-11-27T10:55:01.167Z,16.99
2017-11-27T10:56:03.665Z,16.99
2017-11-27T10:57:06.154Z,16.99
2017-11-27T10:58:08.628Z,16.99
2017-11-27T10:59:11.117Z,16.99
2017-11-27T11:00:13.621Z,16.99
2017-11-27T11:01:16.107Z,17.00
2017-11-27T11:02:18.608Z,16.99
2017-11-27T11:03:21.087Z,16.99
2017-11-27T11:04:23.570Z,16.99
2017-11-27T11:05:26.100Z,16.99
2017-11-27T11:06:28.587Z,16.97
2017-11-27T11:07:31.086Z,16.95
2017-11-27T11:08:33.598Z,16.92
2017-11-27T11:09:36.101Z,16.91
2017-11-27T11:10:38.579Z,16.93
2017-11-27T11:11:41.070Z,16.94
2017-11-27T11:12:43.588Z,16.95
2017-11-27T11:13:46.056Z,16.96
2017-11-27T11:14:48.551Z,17.01
2017-11-27T11:15:51.012Z,17.04
2017-11-27T11:16:53.479Z,17.12
2017-11-27T11:17:55.954Z,17.22
2017-11-27T11:18:58.420Z,17.32
2017-11-27T11:20:01.014Z,17.41
2017-11-27T11:21:03.521Z,17.57
2017-11-27T11:22:06.010Z,17.68
2017-11-27T11:23:08.502Z,17.85
2017-11-27T11:24:10.976Z,17.98
2017-11-27T11:25:13.454Z,18.16
2017-11-27T11:26:15.955Z,18.29
2017-11-27T11:27:18.425Z,18.43
2017-11-27T11:28:20.899Z,18.54
2017-11-27T11:29:23.374Z,18.62
2017-11-27T11:30:25.861Z,18.67
2017-11-27T11:31:28.566Z,18.73
2017-11-27T11:32:31.027Z,18.76
2017-11-27T11:33:33.515Z,18.81
2017-11-27T11:34:35.981Z,18.81
2017-11-27T11:35:38.443Z,18.81
2017-11-27T11:36:40.905Z,18.79
2017-11-27T11:37:43.385Z,18.76
2017-11-27T11:38:45.867Z,18.74
2017-11-27T11:39:48.336Z,18.71
2017-11-27T11:40:50.812Z,18.67
2017-11-27T11:41:53.282Z,18.64
2017-11-27T11:42:55.757Z,18.60
2017-11-27T11:43:58.228Z,18.56
2017-11-27T11:45:00.692Z,18.52
2017-11-27T11:46:03.186Z,18.48
2017-11-27T11:47:05.653Z,18.43
2017-11-27T11:48:08.112Z,18.40
2017-11-27T11:49:10.598Z,18.35
2017-11-27T11:50:13.084Z,18.36
2017-11-27T11:51:15.564Z,18.34
2017-11-27T11:52:18.039Z,18.33
2017-11-27T11:53:20.495Z,18.29
2017-11-27T11:54:22.970Z,18.26
2017-11-27T11:55:25.427Z,18.23
2017-11-27T11:56:27.908Z,18.18
2017-11-27T11:57:30.384Z,18.14
2017-11-27T11:58:32.862Z,18.10
2017-11-27T11:59:35.343Z,18.05
2017-11-27T12:00:37.808Z,18.01
2017-11-27T12:01:40.291Z,17.99
2017-11-27T12:02:42.782Z,17.95
2017-11-27T12:03:45.508Z,17.92
2017-11-27T12:04:47.995Z,17.89
2017-11-27T12:05:50.469Z,17.86
2017-11-27T12:06:52.941Z,17.83
2017-11-27T12:07:55.419Z,17.80
2017-11-27T12:08:57.898Z,17.77
2017-11-27T12:10:00.397Z,17.74
2017-11-27T12:11:02.970Z,17.72
2017-11-27T12:12:05.442Z,17.68
2017-11-27T12:13:07.924Z,17.67
2017-11-27T12:14:10.392Z,17.64
2017-11-27T12:15:12.862Z,17.63
2017-11-27T12:16:15.328Z,17.60
2017-11-27T12:17:17.809Z,17.58
2017-11-27T12:18:20.268Z,17.56
2017-11-27T12:19:22.737Z,17.54
2017-11-27T12:20:25.203Z,17.52
2017-11-27T12:21:27.659Z,17.51
2017-11-27T12:22:30.120Z,17.49
2017-11-27T12:23:32.592Z,17.47
2017-11-27T12:24:35.075Z,17.44
2017-11-27T12:25:37.562Z,17.42
2017-11-27T12:26:40.021Z,17.41
2017-11-27T12:27:42.499Z,17.39
2017-11-27T12:28:44.977Z,17.38
2017-11-27T12:29:47.463Z,17.37
2017-11-27T12:30:49.937Z,17.35
2017-11-27T12:31:52.410Z,17.34
2017-11-27T12:32:54.876Z,17.34
2017-11-27T12:33:57.336Z,17.34
2017-11-27T12:34:59.808Z,17.35
2017-11-27T12:36:02.268Z,17.37
2017-11-27T12:37:04.741Z,17.40
2017-11-27T12:38:07.236Z,17.41
2017-11-27T12:39:09.738Z,17.43
2017-11-27T12:40:12.211Z,17.44
2017-11-27T12:41:14.696Z,17.46
2017-11-27T12:42:17.167Z,17.46
2017-11-27T12:43:19.655Z,17.47
2017-11-27T12:44:22.136Z,17.46
2017-11-27T12:45:24.618Z,17.45
2017-11-27T12:46:27.121Z,17.44
2017-11-27T12:47:29.608Z,17.43
2017-11-27T12:48:32.090Z,17.42
2017-11-27T12:49:34.582Z,17.41
2017-11-27T12:50:37.053Z,17.41
2017-11-27T12:51:39.537Z,17.40
2017-11-27T12:52:42.025Z,17.38
2017-11-27T12:53:44.509Z,17.37
2017-11-27T12:54:46.987Z,17.35
2017-11-27T12:55:49.487Z,17.33
2017-11-27T12:56:51.983Z,17.33
2017-11-27T12:57:54.467Z,17.31
2017-11-27T12:58:56.949Z,17.30
2017-11-27T12:59:59.430Z,17.28
2017-11-27T13:01:01.915Z,17.27
2017-11-27T13:02:04.406Z,17.26
2017-11-27T13:03:06.894Z,17.26
2017-11-27T13:04:09.396Z,17.25
2017-11-27T13:05:11.878Z,17.24
2017-11-27T13:06:14.368Z,17.23
2017-11-27T13:07:16.835Z,17.22
2017-11-27T13:08:19.315Z,17.21
2017-11-27T13:09:21.802Z,17.20
2017-11-27T13:10:24.291Z,17.19
2017-11-27T13:11:26.771Z,17.19
2017-11-27T13:12:29.259Z,17.18
2017-11-27T13:13:31.741Z,17.17
2017-11-27T13:14:34.218Z,17.15
2017-11-27T13:15:36.686Z,17.15
2017-11-27T13:16:39.152Z,17.14
2017-11-27T13:17:41.619Z,17.15
2017-11-27T13:18:44.088Z,17.18
2017-11-27T13:19:46.578Z,17.21
2017-11-27T13:20:49.076Z,17.32
2017-11-27T13:21:51.541Z,17.41
2017-11-27T13:22:54.116Z,17.57
2017-11-27T13:23:56.647Z,17.70
2017-11-27T13:24:59.200Z,17.83
2017-11-27T13:26:01.732Z,18.04